Time;durP1;ratioP1;P1;durP2;ratioP2;P2;SDS_P1;SDS_P2;PMS_P1;PMS_P2;Temp;Humidity;BMP_temperature;BMP_pressure;BME280_temperature;BME280_humidity;BME280_pressure;Samples;Min_cycle;Max_cycle;Signal;HPM_P1;HPM_P2
2022/07/29 00:01:06;;;;;;;10.03;3.13;;;11.10;86.60;;;;;;5035640;28;20665;-87
2022/07/29 00:03:32;;;;;;;7.07;2.70;;;11.20;86.70;;;;;;5035622;28;20176;-88
2022/07/29 00:05:58;;;;;;;4.57;2.57;;;11.30;86.70;;;;;;5052675;28;20219;-87
2022/07/29 00:08:23;;;;;;;2.87;2.20;;;11.30;86.60;;;;;;5035503;28;20171;-88
2022/07/29 00:10:49;;;;;;;6.73;2.50;;;11.40;86.40;;;;;;5035657;28;20257;-87
2022/07/29 00:13:15;;;;;;;3.80;2.30;;;11.50;86.30;;;;;;5053426;28;20179;-88
2022/07/29 00:15:40;;;;;;;3.53;1.90;;;11.50;86.10;;;;;;5035549;28;20665;-87
2022/07/29 00:18:06;;;;;;;3.60;2.23;;;11.50;85.90;;;;;;5035339;28;20191;-88
2022/07/29 00:20:32;;;;;;;5.70;2.23;;;11.50;85.70;;;;;;5035259;28;20274;-88
2022/07/29 00:22:57;;;;;;;2.60;2.40;;;11.40;85.60;;;;;;5053263;28;20180;-88
2022/07/29 00:25:23;;;;;;;3.30;2.00;;;11.50;85.30;;;;;;5035238;28;20203;-87
2022/07/29 00:27:48;;;;;;;4.93;2.50;;;11.50;84.90;;;;;;5035298;28;20184;-88
2022/07/29 00:30:14;;;;;;;6.67;2.77;;;11.50;84.50;;;;;;5053024;28;20251;-88
2022/07/29 00:32:40;;;;;;;5.87;2.70;;;11.40;84.20;;;;;;5035346;28;20176;-87
2022/07/29 00:37:51;;;;;;;4.73;2.17;;;11.50;84.30;;;;;;5053572;28;20222;-87
2022/07/29 00:40:16;;;;;;;4.50;2.57;;;11.50;84.40;;;;;;5035052;28;20180;-88
2022/07/29 00:42:47;;;;;;;8.77;3.13;;;11.40;84.60;;;;;;5035057;28;20665;-87
2022/07/29 00:45:13;;;;;;;9.93;4.00;;;11.30;84.80;;;;;;5035099;28;20239;-87
2022/07/29 00:47:39;;;;;;;8.90;2.90;;;11.20;85.20;;;;;;5035009;28;20176;-87
2022/07/29 00:50:07;;;;;;;3.20;2.50;;;11.20;85.50;;;;;;5035279;28;20275;-87
2022/07/29 00:52:35;;;;;;;8.87;2.90;;;11.20;85.70;;;;;;5052784;28;20177;-87
2022/07/29 00:55:02;;;;;;;6.77;2.40;;;11.10;85.80;;;;;;5052701;28;20212;-88
2022/07/29 00:57:28;;;;;;;4.00;2.50;;;11.20;86.00;;;;;;5034958;28;20184;-88
2022/07/29 00:59:53;;;;;;;6.83;3.20;;;11.20;86.00;;;;;;5035092;28;20661;-88
2022/07/29 01:02:19;;;;;;;7.67;3.33;;;11.30;86.00;;;;;;5034742;28;20237;-88
2022/07/29 01:04:45;;;;;;;3.50;2.30;;;11.30;85.80;;;;;;5034862;28;20196;-87
2022/07/29 01:07:10;;;;;;;6.17;2.77;;;11.10;85.90;;;;;;5052963;28;20597;-87
2022/07/29 01:09:37;;;;;;;4.80;3.10;;;10.90;86.30;;;;;;5052678;28;20179;-87
2022/07/29 01:12:04;;;;;;;8.63;2.80;;;10.90;86.60;;;;;;5034882;28;20229;-88
2022/07/29 01:14:30;;;;;;;5.60;3.00;;;10.90;86.80;;;;;;5035016;28;20200;-87
2022/07/29 01:17:05;;;;;;;4.67;3.00;;;10.80;87.10;;;;;;5034938;28;20265;-87
2022/07/29 01:19:53;;;;;;;6.93;3.40;;;10.90;87.40;;;;;;5038459;28;20163;-87
2022/07/29 01:22:18;;;;;;;6.53;3.13;;;10.80;87.60;;;;;;5056197;28;20207;-88
2022/07/29 01:25:25;;;;;;;5.60;3.33;;;10.80;87.70;;;;;;5038336;28;20199;-87
2022/07/29 01:27:59;;;;;;;6.77;3.40;;;10.80;87.80;;;;;;5056223;28;20160;-87
2022/07/29 01:30:26;;;;;;;5.50;3.23;;;10.80;87.90;;;;;;5038307;28;20178;-87
2022/07/29 01:33:01;;;;;;;6.10;3.63;;;10.80;87.90;;;;;;5056128;28;20574;-88
2022/07/29 01:35:35;;;;;;;4.07;3.43;;;10.90;88.00;;;;;;5038070;28;20696;-87
2022/07/29 01:38:10;;;;;;;10.07;3.40;;;10.90;88.10;;;;;;5038239;28;20642;-87
2022/07/29 01:40:47;;;;;;;7.60;2.87;;;10.90;88.10;;;;;;5056011;28;20756;-87
2022/07/29 01:43:26;;;;;;;6.37;3.30;;;10.90;88.10;;;;;;5038012;28;20175;-87
2022/07/29 01:46:05;;;;;;;5.33;3.57;;;10.80;88.10;;;;;;5037951;28;20196;-87
2022/07/29 01:48:38;;;;;;;6.67;4.07;;;10.70;88.20;;;;;;5037974;28;20176;-87
2022/07/29 01:51:17;;;;;;;5.90;4.20;;;10.80;88.40;;;;;;5038028;28;20544;-87
2022/07/29 01:53:55;;;;;;;8.30;3.90;;;10.80;88.40;;;;;;5037798;28;20657;-87
2022/07/29 01:56:23;;;;;;;10.67;4.33;;;10.80;88.50;;;;;;5037763;28;20172;-87
2022/07/29 01:58:51;;;;;;;6.67;4.07;;;10.90;88.50;;;;;;5055843;28;20221;-87
2022/07/29 02:01:18;;;;;;;7.63;3.63;;;10.80;88.60;;;;;;5037649;28;20208;-87
2022/07/29 02:03:45;;;;;;;5.53;3.40;;;10.80;88.60;;;;;;5037595;28;20210;-87
2022/07/29 02:06:14;;;;;;;10.07;4.70;;;10.80;88.70;;;;;;5037666;28;20179;-88
2022/07/29 02:08:41;;;;;;;12.07;4.10;;;10.80;88.80;;;;;;5055749;28;20183;-87
2022/07/29 02:11:08;;;;;;;5.87;3.50;;;10.80;88.80;;;;;;5037453;28;20271;-88
2022/07/29 02:13:36;;;;;;;6.40;4.40;;;10.80;88.90;;;;;;5037518;28;20190;-87
2022/07/29 02:16:04;;;;;;;5.93;3.87;;;10.80;88.90;;;;;;5037359;28;20204;-87
2022/07/29 02:18:30;;;;;;;8.37;3.60;;;10.80;89.00;;;;;;5037759;28;20176;-87
2022/07/29 02:20:58;;;;;;;11.40;4.40;;;10.80;89.00;;;;;;5037173;28;20207;-87
2022/07/29 02:23:25;;;;;;;8.60;3.73;;;10.80;89.20;;;;;;5038113;28;20547;-87
2022/07/29 02:25:54;;;;;;;6.77;3.40;;;10.80;89.20;;;;;;5037079;28;20200;-87
2022/07/29 02:28:24;;;;;;;6.07;4.30;;;10.80;89.30;;;;;;5037154;28;20255;-87
2022/07/29 02:30:52;;;;;;;6.57;3.70;;;10.80;89.30;;;;;;5036598;28;20552;-87
2022/07/29 02:33:19;;;;;;;4.57;3.63;;;10.90;89.40;;;;;;5054842;28;20225;-87
2022/07/29 02:35:46;;;;;;;8.90;3.63;;;10.80;89.40;;;;;;5036985;28;20223;-87
2022/07/29 02:41:01;;;;;;;9.63;3.80;;;10.90;89.30;;;;;;5055226;28;20284;-87
2022/07/29 02:43:30;;;;;;;8.30;3.57;;;11.00;89.30;;;;;;5055014;28;20703;-87
2022/07/29 02:45:57;;;;;;;7.17;3.37;;;11.00;89.30;;;;;;5054723;28;20196;-87
2022/07/29 02:48:32;;;;;;;8.30;3.80;;;11.00;89.20;;;;;;5036705;28;20641;-87
2022/07/29 02:51:08;;;;;;;5.83;3.53;;;11.00;89.20;;;;;;5037119;28;20164;-87
2022/07/29 02:53:35;;;;;;;9.60;3.73;;;11.00;89.20;;;;;;5037652;28;20167;-87
2022/07/29 02:56:07;;;;;;;13.03;3.77;;;11.10;89.20;;;;;;5036658;28;20246;-87
2022/07/29 02:58:42;;;;;;;6.90;3.40;;;11.10;89.20;;;;;;5036566;28;20167;-87
2022/07/29 03:01:15;;;;;;;6.60;3.80;;;11.10;89.20;;;;;;5036527;28;20696;-87
2022/07/29 03:03:44;;;;;;;5.20;3.50;;;11.10;89.20;;;;;;5036534;28;20180;-87
2022/07/29 03:06:11;;;;;;;9.83;3.53;;;11.00;89.30;;;;;;5036451;28;20208;-87
2022/07/29 03:08:37;;;;;;;7.47;3.70;;;11.00;89.30;;;;;;5054303;28;20169;-87
2022/07/29 03:11:04;;;;;;;11.20;3.87;;;11.00;89.30;;;;;;5054221;28;20172;-87
2022/07/29 03:13:30;;;;;;;9.07;3.93;;;11.00;89.30;;;;;;5054138;28;20200;-87
2022/07/29 03:15:57;;;;;;;6.10;3.23;;;11.00;89.40;;;;;;5054460;28;20664;-87
2022/07/29 03:18:23;;;;;;;7.20;3.63;;;11.10;89.40;;;;;;5036205;28;20203;-87
2022/07/29 03:20:49;;;;;;;6.53;3.63;;;11.10;89.30;;;;;;5036198;28;20529;-87
2022/07/29 03:23:21;;;;;;;5.93;3.40;;;11.10;89.30;;;;;;5036192;28;20180;-87
2022/07/29 03:25:47;;;;;;;13.20;3.60;;;11.10;89.30;;;;;;5036105;28;20192;-87
2022/07/29 03:28:12;;;;;;;8.87;3.60;;;11.10;89.30;;;;;;5036228;28;20187;-87
2022/07/29 03:30:38;;;;;;;5.67;3.67;;;11.20;89.30;;;;;;5036080;28;20176;-87
2022/07/29 03:33:03;;;;;;;5.63;3.50;;;11.10;89.30;;;;;;5035967;28;20179;-87
2022/07/29 03:35:31;;;;;;;15.27;5.00;;;11.20;89.20;;;;;;5053604;28;20234;-87
2022/07/29 03:37:57;;;;;;;10.40;4.00;;;11.20;89.20;;;;;;5036000;28;20176;-87
2022/07/29 03:40:32;;;;;;;9.47;3.77;;;11.20;89.20;;;;;;5053321;28;20263;-87
2022/07/29 03:43:00;;;;;;;9.97;3.50;;;11.20;89.10;;;;;;5035635;28;20554;-87
2022/07/29 03:45:28;;;;;;;11.10;4.33;;;11.30;89.10;;;;;;5035789;28;20282;-87
2022/07/29 03:48:00;;;;;;;6.93;3.63;;;11.40;89.00;;;;;;5035841;28;20176;-87
2022/07/29 03:50:28;;;;;;;8.67;3.30;;;11.50;88.80;;;;;;5035942;28;20688;-87
2022/07/29 03:52:54;;;;;;;6.37;3.90;;;11.60;88.50;;;;;;5053585;28;20538;-88
2022/07/29 03:55:20;;;;;;;7.03;3.40;;;11.70;88.10;;;;;;5035665;28;20245;-87
2022/07/29 03:57:47;;;;;;;6.47;3.80;;;11.70;87.90;;;;;;5053433;28;20172;-87
2022/07/29 04:00:15;;;;;;;5.90;3.57;;;11.70;87.80;;;;;;5035537;28;20184;-87
2022/07/29 04:02:44;;;;;;;12.27;3.70;;;11.70;87.70;;;;;;5035458;28;20206;-87
2022/07/29 04:05:13;;;;;;;6.93;3.97;;;11.70;87.80;;;;;;5053225;28;20215;-87
2022/07/29 04:07:48;;;;;;;11.37;3.47;;;11.60;87.90;;;;;;5035476;28;20168;-88
2022/07/29 04:10:15;;;;;;;10.23;3.80;;;11.60;88.10;;;;;;5036312;28;20175;-87
2022/07/29 04:12:41;;;;;;;7.20;3.70;;;11.50;88.30;;;;;;5035423;28;20176;-87
2022/07/29 04:15:07;;;;;;;9.33;3.40;;;11.60;88.40;;;;;;5035442;28;20254;-87
2022/07/29 04:17:33;;;;;;;6.93;3.83;;;11.60;88.50;;;;;;5053322;28;20176;-87
2022/07/29 04:19:58;;;;;;;10.03;4.17;;;11.60;88.60;;;;;;5035225;28;20176;-87
2022/07/29 04:22:24;;;;;;;9.23;3.83;;;11.60;88.60;;;;;;5035224;28;20203;-87
2022/07/29 04:24:49;;;;;;;5.87;3.50;;;11.60;88.70;;;;;;5053063;28;20220;-87
2022/07/29 04:27:15;;;;;;;9.93;4.07;;;11.60;88.70;;;;;;5035351;28;20206;-87
2022/07/29 04:29:40;;;;;;;7.83;3.70;;;11.70;88.70;;;;;;5035185;28;20176;-87
2022/07/29 04:32:06;;;;;;;14.80;4.30;;;11.70;88.70;;;;;;5035247;28;20197;-87
2022/07/29 04:34:31;;;;;;;9.10;4.17;;;11.80;88.80;;;;;;5035105;28;20310;-88
2022/07/29 04:36:57;;;;;;;9.00;3.60;;;11.70;88.90;;;;;;5035199;28;20183;-87
2022/07/29 04:39:23;;;;;;;9.73;3.93;;;11.70;88.90;;;;;;5035273;28;20183;-87
2022/07/29 04:41:49;;;;;;;11.47;4.60;;;11.70;88.90;;;;;;5035036;28;20269;-87
2022/07/29 04:44:15;;;;;;;9.67;4.17;;;11.70;89.00;;;;;;5034968;28;20610;-87
2022/07/29 04:46:41;;;;;;;7.63;3.70;;;11.70;89.00;;;;;;5035101;28;20179;-87
2022/07/29 04:49:06;;;;;;;7.17;4.20;;;11.80;89.00;;;;;;5035178;28;20635;-88
2022/07/29 04:51:32;;;;;;;6.43;4.20;;;11.80;89.00;;;;;;5035511;28;20180;-87
2022/07/29 04:53:57;;;;;;;7.10;3.67;;;11.80;89.00;;;;;;5038449;28;20226;-87
2022/07/29 04:56:23;;;;;;;11.23;4.30;;;11.80;89.00;;;;;;5056894;28;20211;-88
2022/07/29 04:58:48;;;;;;;11.83;4.10;;;11.80;89.10;;;;;;5038826;28;20596;-87
2022/07/29 05:01:14;;;;;;;9.63;3.80;;;11.80;89.10;;;;;;5038809;28;20666;-87
2022/07/29 05:03:40;;;;;;;9.13;3.83;;;11.90;89.10;;;;;;5038813;28;20271;-87
2022/07/29 05:06:06;;;;;;;6.77;3.37;;;12.00;89.10;;;;;;5038821;28;20203;-88
2022/07/29 05:08:31;;;;;;;6.57;3.70;;;12.10;89.10;;;;;;5056564;28;20203;-88
2022/07/29 05:10:57;;;;;;;7.20;3.73;;;12.10;89.20;;;;;;5038764;28;20215;-88
2022/07/29 05:13:23;;;;;;;5.60;3.73;;;12.30;89.20;;;;;;5038795;28;20338;-88
2022/07/29 05:15:48;;;;;;;8.50;4.63;;;12.30;89.30;;;;;;5056427;28;20222;-88
2022/07/29 05:18:14;;;;;;;6.23;3.57;;;12.50;89.30;;;;;;5038643;28;20189;-89
2022/07/29 05:20:39;;;;;;;12.53;4.33;;;12.70;89.20;;;;;;5038473;28;20211;-88
2022/07/29 05:23:05;;;;;;;7.63;3.57;;;12.80;88.70;;;;;;5038614;28;20257;-87
2022/07/29 05:25:31;;;;;;;6.50;3.60;;;12.90;88.10;;;;;;5038457;28;20277;-87
2022/07/29 05:27:57;;;;;;;8.57;3.80;;;13.10;87.80;;;;;;5038478;28;20222;-89
2022/07/29 05:30:23;;;;;;;7.17;3.63;;;13.20;87.40;;;;;;5056431;28;20617;-90
2022/07/29 05:32:48;;;;;;;4.33;3.50;;;13.30;86.80;;;;;;5038626;28;20240;-89
2022/07/29 05:35:15;;;;;;;8.50;4.00;;;13.30;86.30;;;;;;5038232;28;20212;-89
2022/07/29 05:37:41;;;;;;;14.17;3.93;;;13.50;85.90;;;;;;5039433;28;20180;-87
2022/07/29 05:40:08;;;;;;;5.00;3.50;;;13.60;85.90;;;;;;5038616;28;20187;-87
2022/07/29 05:42:33;;;;;;;13.60;4.37;;;13.70;85.10;;;;;;5037973;28;20210;-86
2022/07/29 05:45:00;;;;;;;4.83;2.80;;;13.90;84.50;;;;;;5055971;28;20618;-88
2022/07/29 05:47:26;;;;;;;6.33;3.00;;;14.00;84.30;;;;;;5038118;28;20661;-88
2022/07/29 05:49:51;;;;;;;5.20;3.20;;;14.00;83.40;;;;;;5038198;28;20180;-87
2022/07/29 05:52:17;;;;;;;10.63;3.50;;;14.00;82.60;;;;;;5056203;28;20235;-88
2022/07/29 05:54:43;;;;;;;8.73;3.37;;;14.10;82.80;;;;;;5037956;28;20210;-87
2022/07/29 05:57:15;;;;;;;6.57;2.90;;;14.20;82.50;;;;;;5055876;28;20184;-88
2022/07/29 05:59:41;;;;;;;11.00;3.30;;;14.20;82.10;;;;;;5056052;28;20160;-88
2022/07/29 06:02:07;;;;;;;10.37;3.70;;;14.30;81.80;;;;;;5037945;28;20334;-88
2022/07/29 06:04:33;;;;;;;8.70;3.17;;;14.30;81.50;;;;;;5037455;28;20206;-88
2022/07/29 06:06:59;;;;;;;8.63;2.70;;;14.40;80.70;;;;;;5037779;28;20261;-88
2022/07/29 06:09:25;;;;;;;12.57;4.03;;;14.40;79.80;;;;;;5037929;28;20207;-88
2022/07/29 06:11:52;;;;;;;6.87;3.23;;;14.40;80.40;;;;;;5037683;28;20218;-88
2022/07/29 06:14:17;;;;;;;5.23;3.63;;;14.50;80.70;;;;;;5037651;28;20227;-88
2022/07/29 06:16:43;;;;;;;6.93;2.90;;;14.60;80.70;;;;;;5037790;28;20623;-89
2022/07/29 06:19:08;;;;;;;10.53;3.87;;;14.70;80.30;;;;;;5055479;28;20262;-88
2022/07/29 06:21:34;;;;;;;5.67;2.93;;;14.80;79.90;;;;;;5037576;28;20670;-88
2022/07/29 06:24:00;;;;;;;9.23;2.90;;;14.80;79.40;;;;;;5037634;28;20180;-88
2022/07/29 06:26:25;;;;;;;7.40;3.00;;;14.80;79.00;;;;;;5037621;28;20212;-89
2022/07/29 06:28:51;;;;;;;8.60;3.13;;;14.80;79.00;;;;;;5055547;28;20210;-89
2022/07/29 06:31:16;;;;;;;7.17;2.97;;;14.80;79.00;;;;;;5055515;28;20222;-87
2022/07/29 06:33:42;;;;;;;6.67;3.10;;;14.90;79.30;;;;;;5037809;28;20225;-88
2022/07/29 06:36:08;;;;;;;7.97;2.90;;;14.90;79.00;;;;;;5037925;28;20175;-88
2022/07/29 06:38:33;;;;;;;10.10;3.73;;;14.90;78.70;;;;;;5037708;28;20183;-88
2022/07/29 06:40:59;;;;;;;9.77;2.87;;;15.00;78.80;;;;;;5037994;28;20184;-87
2022/07/29 06:43:27;;;;;;;7.70;2.77;;;15.10;78.50;;;;;;5037495;28;20541;-89
2022/07/29 06:45:52;;;;;;;6.30;2.87;;;15.00;77.70;;;;;;5037341;28;20207;-88
2022/07/29 06:48:18;;;;;;;13.27;3.77;;;15.10;78.00;;;;;;5037532;28;20176;-88
2022/07/29 06:50:43;;;;;;;4.97;2.93;;;15.20;77.80;;;;;;5037431;28;20176;-89
2022/07/29 06:53:09;;;;;;;9.60;3.30;;;15.20;77.60;;;;;;5038063;28;20167;-87
2022/07/29 06:55:36;;;;;;;6.27;3.03;;;15.20;77.70;;;;;;5055117;28;20219;-87
2022/07/29 06:58:02;;;;;;;11.43;3.13;;;15.30;77.40;;;;;;5037280;28;20255;-87
2022/07/29 07:00:27;;;;;;;6.80;2.80;;;15.40;77.50;;;;;;5037212;28;20195;-87
2022/07/29 07:02:53;;;;;;;8.07;2.90;;;15.50;77.30;;;;;;5038472;28;20612;-87
2022/07/29 07:05:18;;;;;;;9.17;3.07;;;15.40;76.70;;;;;;5055426;28;20625;-87
2022/07/29 07:07:44;;;;;;;8.33;3.37;;;15.50;77.50;;;;;;5037044;28;20646;-87
2022/07/29 07:10:09;;;;;;;7.10;3.17;;;15.50;76.80;;;;;;5037402;28;20722;-88
2022/07/29 07:12:35;;;;;;;8.18;2.83;;;15.70;77.20;;;;;;5037650;28;20547;-86
2022/07/29 07:15:01;;;;;;;14.35;3.20;;;15.70;77.10;;;;;;5037200;28;20203;-87
2022/07/29 07:17:26;;;;;;;9.65;3.08;;;15.80;76.90;;;;;;5037041;28;20642;-86
2022/07/29 07:19:52;;;;;;;8.95;3.25;;;15.80;76.40;;;;;;5037363;28;20208;-87
2022/07/29 07:22:17;;;;;;;7.30;2.90;;;15.90;76.50;;;;;;5036910;28;20293;-87
2022/07/29 07:24:43;;;;;;;8.43;3.10;;;16.00;76.50;;;;;;5036988;28;20691;-87
2022/07/29 07:27:08;;;;;;;6.18;2.60;;;16.00;75.90;;;;;;5037055;28;20596;-87
2022/07/29 07:29:34;;;;;;;9.10;3.97;;;16.20;76.50;;;;;;5036841;28;20183;-86
2022/07/29 07:31:59;;;;;;;8.45;3.17;;;16.20;76.20;;;;;;5054953;28;20180;-86
2022/07/29 07:34:25;;;;;;;8.40;2.83;;;16.40;75.90;;;;;;5036584;28;20219;-86
2022/07/29 07:36:50;;;;;;;10.38;3.08;;;16.40;75.20;;;;;;5054990;28;20195;-87
2022/07/29 07:39:16;;;;;;;6.20;2.80;;;16.50;75.00;;;;;;5036738;28;20176;-87
2022/07/29 07:41:41;;;;;;;8.32;3.13;;;16.60;75.00;;;;;;5036607;28;20208;-87
2022/07/29 07:44:07;;;;;;;8.25;2.97;;;16.60;74.30;;;;;;5036454;28;20195;-87
2022/07/29 07:46:32;;;;;;;8.63;3.33;;;16.70;74.40;;;;;;5036612;28;20172;-87
2022/07/29 07:48:58;;;;;;;8.25;2.63;;;16.70;74.20;;;;;;5036775;28;20630;-87
2022/07/29 07:51:23;;;;;;;7.45;2.75;;;16.80;73.90;;;;;;5054957;28;20231;-86
2022/07/29 07:53:50;;;;;;;9.32;3.30;;;17.20;74.30;;;;;;5036718;28;20176;-87
2022/07/29 07:56:16;;;;;;;6.15;2.90;;;17.40;73.20;;;;;;5037216;28;20180;-87
2022/07/29 07:58:41;;;;;;;7.15;3.70;;;17.50;71.80;;;;;;5037095;28;20183;-87
2022/07/29 08:01:08;;;;;;;6.38;2.72;;;17.90;72.70;;;;;;5054978;28;20195;-86
2022/07/29 08:03:34;;;;;;;10.65;3.17;;;18.10;71.70;;;;;;5036559;28;20530;-87
2022/07/29 08:06:00;;;;;;;9.77;2.80;;;18.20;71.40;;;;;;5054144;28;20195;-87
2022/07/29 08:08:25;;;;;;;7.30;2.63;;;18.30;71.40;;;;;;5036315;28;20550;-87
2022/07/29 08:10:55;;;;;;;5.97;2.60;;;18.50;70.60;;;;;;5036298;28;20198;-87
2022/07/29 08:13:25;;;;;;;6.90;2.97;;;18.50;69.90;;;;;;5036920;28;20525;-87
2022/07/29 08:15:57;;;;;;;6.93;2.65;;;18.40;69.80;;;;;;5037049;28;20196;-89
2022/07/29 08:18:27;;;;;;;6.20;3.38;;;18.30;70.30;;;;;;5037532;28;20160;-88
2022/07/29 08:20:54;;;;;;;6.53;2.85;;;18.30;70.20;;;;;;5038770;28;20165;-89
2022/07/29 08:23:19;;;;;;;7.57;3.00;;;18.50;70.70;;;;;;5037326;28;20187;-88
2022/07/29 08:25:45;;;;;;;5.70;2.55;;;18.50;69.90;;;;;;5054933;28;20196;-88
2022/07/29 08:28:10;;;;;;;5.20;3.03;;;18.60;69.60;;;;;;5036219;28;20176;-87
2022/07/29 08:30:36;;;;;;;7.20;2.75;;;18.70;69.90;;;;;;5036880;28;20254;-87
2022/07/29 08:33:01;;;;;;;7.47;2.70;;;18.80;70.00;;;;;;5054230;28;20176;-87
2022/07/29 08:35:28;;;;;;;3.58;2.72;;;18.80;68.70;;;;;;5035669;28;20208;-86
2022/07/29 08:37:54;;;;;;;7.50;3.30;;;18.90;68.50;;;;;;5035542;28;20732;-87
2022/07/29 08:40:20;;;;;;;7.65;3.05;;;19.00;68.90;;;;;;5053609;28;20180;-87
2022/07/29 08:42:46;;;;;;;5.75;3.30;;;19.20;68.40;;;;;;5035070;28;20265;-88
2022/07/29 08:45:12;;;;;;;6.00;2.55;;;19.40;67.30;;;;;;5052890;28;20184;-88
2022/07/29 08:47:43;;;;;;;8.68;2.95;;;19.50;66.90;;;;;;5035263;28;20204;-87
2022/07/29 08:50:09;;;;;;;6.90;3.05;;;19.50;66.30;;;;;;5053050;28;20172;-88
2022/07/29 08:52:40;;;;;;;6.80;2.90;;;19.50;67.30;;;;;;5035112;28;20180;-88
2022/07/29 08:55:07;;;;;;;5.80;3.17;;;19.50;66.20;;;;;;5052684;28;20569;-87
2022/07/29 08:57:38;;;;;;;7.45;3.40;;;19.30;66.80;;;;;;5035443;28;20179;-87
2022/07/29 09:00:05;;;;;;;6.32;3.08;;;19.40;66.90;;;;;;5035348;28;20176;-88
2022/07/29 09:02:37;;;;;;;5.47;2.65;;;19.50;67.00;;;;;;5052920;28;20729;-89
2022/07/29 09:05:04;;;;;;;8.88;3.35;;;19.30;66.60;;;;;;5035969;28;20233;-88
2022/07/29 09:07:32;;;;;;;8.60;3.38;;;19.30;67.40;;;;;;5036547;28;20172;-88
2022/07/29 09:09:58;;;;;;;7.15;2.90;;;19.30;67.00;;;;;;5036657;28;20188;-88
2022/07/29 09:12:24;;;;;;;5.70;2.90;;;19.20;67.00;;;;;;5054617;28;20191;-87
2022/07/29 09:14:50;;;;;;;3.65;2.78;;;19.20;67.40;;;;;;5036445;28;20200;-88
2022/07/29 09:17:17;;;;;;;8.13;2.90;;;19.20;67.00;;;;;;5053906;28;20184;-88
2022/07/29 09:19:43;;;;;;;10.10;3.72;;;19.20;68.50;;;;;;5035772;28;20578;-88
2022/07/29 09:22:09;;;;;;;6.50;2.80;;;19.20;67.60;;;;;;5035796;28;20253;-88
2022/07/29 09:24:43;;;;;;;12.38;3.28;;;19.20;67.90;;;;;;5035380;28;20199;-88
2022/07/29 09:27:25;;;;;;;6.75;3.38;;;19.20;68.20;;;;;;5035503;28;20211;-88
2022/07/29 09:30:04;;;;;;;5.10;2.80;;;19.20;68.60;;;;;;5035823;28;20546;-88
2022/07/29 09:32:30;;;;;;;8.90;3.33;;;19.20;67.90;;;;;;5035751;28;20238;-88
2022/07/29 09:35:19;;;;;;;6.85;2.83;;;19.20;68.20;;;;;;5036113;28;20681;-87
2022/07/29 09:37:45;;;;;;;6.22;2.80;;;19.30;68.30;;;;;;5036461;28;20180;-87
2022/07/29 09:40:17;;;;;;;9.50;3.13;;;19.30;68.50;;;;;;5039184;28;20196;-88
2022/07/29 09:42:43;;;;;;;6.95;3.35;;;19.40;69.60;;;;;;5038937;28;20199;-86
2022/07/29 09:45:09;;;;;;;7.20;3.03;;;19.30;68.80;;;;;;5039215;28;20196;-86
2022/07/29 09:47:47;;;;;;;9.15;3.25;;;19.40;69.10;;;;;;5057440;28;20622;-86
2022/07/29 09:50:13;;;;;;;7.78;3.30;;;19.50;69.10;;;;;;5038856;28;20179;-86
2022/07/29 09:52:50;;;;;;;8.02;3.25;;;19.50;68.00;;;;;;5056706;28;20692;-86
2022/07/29 09:55:17;;;;;;;5.93;3.20;;;19.50;67.90;;;;;;5037874;28;20673;-87
2022/07/29 09:57:43;;;;;;;5.80;2.92;;;19.50;67.50;;;;;;5055836;28;20183;-87
2022/07/29 10:00:12;;;;;;;3.78;2.60;;;19.60;67.90;;;;;;5038233;28;20642;-87
2022/07/29 10:02:40;;;;;;;10.48;3.08;;;19.70;68.00;;;;;;5037707;28;20587;-87
2022/07/29 10:05:22;;;;;;;5.55;2.88;;;19.70;67.30;;;;;;5037665;28;20192;-86
2022/07/29 10:07:53;;;;;;;6.57;2.88;;;19.80;66.30;;;;;;5038044;28;20168;-86
2022/07/29 10:10:27;;;;;;;8.88;2.72;;;19.80;66.30;;;;;;5037831;28;20321;-86
2022/07/29 10:13:02;;;;;;;5.63;3.20;;;19.90;66.80;;;;;;5037618;28;20172;-86
2022/07/29 10:15:33;;;;;;;7.38;2.83;;;20.00;67.20;;;;;;5055370;28;20219;-85
2022/07/29 10:17:59;;;;;;;6.18;3.05;;;20.00;66.80;;;;;;5037511;28;20233;-86
2022/07/29 10:20:27;;;;;;;6.72;2.80;;;20.10;65.80;;;;;;5037371;28;20553;-85
2022/07/29 10:22:53;;;;;;;6.85;2.45;;;20.20;65.40;;;;;;5037343;28;20207;-86
2022/07/29 10:25:20;;;;;;;5.47;2.70;;;20.20;64.20;;;;;;5037511;28;20342;-87
2022/07/29 10:27:47;;;;;;;6.47;2.83;;;20.40;62.80;;;;;;5037363;28;20176;-87
2022/07/29 10:30:14;;;;;;;3.55;2.65;;;20.40;64.20;;;;;;5037364;28;20172;-88
2022/07/29 10:33:14;;;;;;;7.32;2.60;;;20.50;62.20;;;;;;5038005;28;20178;-89
2022/07/29 10:35:54;;;;;;;5.57;2.42;;;20.50;63.20;;;;;;5039715;28;20208;-89
2022/07/29 10:38:48;;;;;;;7.32;2.42;;;20.60;62.00;;;;;;5039993;28;20634;-89
2022/07/29 10:41:51;;;;;;;7.70;2.85;;;20.60;61.90;;;;;;5039966;28;20199;-88
2022/07/29 10:44:20;;;;;;;5.47;2.35;;;20.70;61.50;;;;;;5040519;28;20191;-89
2022/07/29 10:46:47;;;;;;;8.25;2.45;;;20.70;60.90;;;;;;5042443;28;20182;-88
2022/07/29 10:49:14;;;;;;;4.53;2.10;;;20.80;61.20;;;;;;5040893;28;20180;-88
2022/07/29 10:51:58;;;;;;;8.32;2.20;;;20.90;60.80;;;;;;5041525;28;20234;-88
2022/07/29 10:54:38;;;;;;;6.35;2.00;;;21.00;58.80;;;;;;5041842;28;20665;-88
2022/07/29 10:57:31;;;;;;;6.85;2.22;;;21.00;58.80;;;;;;5042129;28;20171;-89
2022/07/29 11:00:10;;;;;;;7.97;2.40;;;21.10;59.20;;;;;;5040033;28;20191;-89
2022/07/29 11:02:45;;;;;;;5.63;2.20;;;21.20;57.80;;;;;;5042342;28;20278;-90
2022/07/29 11:05:18;;;;;;;5.10;2.17;;;21.20;58.60;;;;;;5041568;28;20610;-89
2022/07/29 11:08:12;;;;;;;5.47;2.13;;;21.30;58.90;;;;;;5043020;28;20175;-89
2022/07/29 11:10:39;;;;;;;9.75;2.45;;;21.30;57.30;;;;;;5044073;28;20168;-89
2022/07/29 11:13:05;;;;;;;232.80;23.42;;;21.40;56.50;;;;;;5043617;28;20647;-89
2022/07/29 11:15:54;;;;;;;3.92;2.17;;;21.50;56.70;;;;;;5044213;28;20277;-88
2022/07/29 11:18:19;;;;;;;8.07;2.10;;;21.60;57.10;;;;;;5045300;28;20176;-89
2022/07/29 11:20:50;;;;;;;8.02;2.20;;;21.70;54.20;;;;;;5043755;28;20180;-88
2022/07/29 11:23:26;;;;;;;6.57;2.03;;;21.70;54.80;;;;;;5044387;28;20194;-88
2022/07/29 11:26:12;;;;;;;4.93;1.63;;;21.80;54.70;;;;;;5044520;28;20198;-88
2022/07/29 11:29:06;;;;;;;7.60;2.20;;;22.20;54.90;;;;;;5043182;28;20179;-88
2022/07/29 11:31:38;;;;;;;7.68;1.92;;;22.30;53.90;;;;;;5031867;28;20211;-89
2022/07/29 11:34:21;;;;;;;6.97;2.30;;;22.40;52.90;;;;;;5044120;28;20298;-89
2022/07/29 11:37:12;;;;;;;4.72;1.50;;;22.70;53.40;;;;;;5045173;28;20211;-88
2022/07/29 11:40:06;;;;;;;3.40;1.65;;;22.80;51.60;;;;;;5043431;28;20642;-88
2022/07/29 11:42:34;;;;;;;4.25;1.88;;;22.90;51.10;;;;;;5044430;28;20234;-88
2022/07/29 11:45:05;;;;;;;10.32;2.35;;;23.00;51.90;;;;;;5044564;28;20286;-88
2022/07/29 11:47:32;;;;;;;9.88;1.90;;;23.10;51.00;;;;;;5045567;28;20172;-89
2022/07/29 11:49:59;;;;;;;6.50;2.08;;;23.10;50.00;;;;;;5063077;28;20182;-88
2022/07/29 11:52:37;;;;;;;7.57;2.28;;;23.10;51.70;;;;;;5062104;28;20179;-88
2022/07/29 11:55:06;;;;;;;7.75;1.80;;;22.90;50.50;;;;;;5045280;28;20199;-88
2022/07/29 11:57:34;;;;;;;6.55;2.10;;;23.00;50.50;;;;;;5045273;28;20183;-88
2022/07/29 12:00:00;;;;;;;8.07;2.08;;;23.20;51.30;;;;;;5042199;28;20176;-88
2022/07/29 12:02:39;;;;;;;5.90;1.90;;;23.50;51.90;;;;;;5040426;28;20206;-87
2022/07/29 12:05:05;;;;;;;2.83;1.50;;;23.90;48.20;;;;;;5042622;28;20283;-89
2022/07/29 12:07:32;;;;;;;5.00;1.90;;;24.10;48.10;;;;;;5040047;28;20608;-89
2022/07/29 12:09:58;;;;;;;8.02;1.90;;;24.00;49.30;;;;;;5040810;28;20168;-87
2022/07/29 12:12:24;;;;;;;4.35;1.90;;;23.90;48.30;;;;;;5039295;28;20541;-89
2022/07/29 12:14:50;;;;;;;5.72;1.83;;;23.80;48.80;;;;;;5040425;28;20200;-88
2022/07/29 12:17:34;;;;;;;6.13;2.00;;;23.70;47.00;;;;;;5059220;28;20227;-88
2022/07/29 12:20:03;;;;;;;4.40;1.88;;;23.60;48.40;;;;;;5041421;28;20176;-88
2022/07/29 12:22:34;;;;;;;5.88;1.85;;;23.60;48.30;;;;;;5041586;28;20573;-88
2022/07/29 12:25:09;;;;;;;4.43;1.80;;;23.50;48.20;;;;;;5039969;28;20277;-89
2022/07/29 12:27:35;;;;;;;4.20;1.60;;;23.30;48.40;;;;;;5039834;28;20194;-89
2022/07/29 12:30:05;;;;;;;5.15;1.80;;;23.20;50.60;;;;;;5039515;28;20168;-89
2022/07/29 12:32:35;;;;;;;2.88;1.50;;;23.20;50.10;;;;;;5041034;28;20176;-88
2022/07/29 12:35:11;;;;;;;4.57;1.70;;;23.10;48.50;;;;;;5058978;28;20215;-89
2022/07/29 12:37:39;;;;;;;44.60;4.80;;;23.10;48.70;;;;;;5040591;28;20187;-88
2022/07/29 12:40:07;;;;;;;6.32;2.05;;;23.20;49.90;;;;;;5039995;28;20176;-89
2022/07/29 12:42:32;;;;;;;4.70;2.05;;;23.20;49.80;;;;;;5041061;28;20215;-88
2022/07/29 12:44:58;;;;;;;34.83;3.17;;;23.60;49.10;;;;;;5059267;28;20718;-89
2022/07/29 12:47:24;;;;;;;4.35;1.70;;;24.00;47.50;;;;;;5038004;28;20225;-87
2022/07/29 12:49:50;;;;;;;4.22;1.50;;;24.40;47.00;;;;;;5036107;28;20218;-88
2022/07/29 12:52:30;;;;;;;3.47;1.77;;;24.30;45.60;;;;;;5036664;28;20179;-87
2022/07/29 12:54:56;;;;;;;21.75;2.53;;;24.60;46.40;;;;;;5053838;28;20203;-88
2022/07/29 12:57:22;;;;;;;6.22;1.95;;;24.90;46.40;;;;;;5036540;28;20546;-88
2022/07/29 13:00:10;;;;;;;7.07;1.77;;;25.10;47.10;;;;;;5035499;28;20642;-88